createdAt,value
2019-06-27T00:00:54.344Z,28.40
2019-06-27T00:03:23.813Z,28.30
2019-06-27T00:05:53.270Z,28.20
2019-06-27T00:08:22.769Z,28.10
2019-06-27T00:10:52.270Z,28.20
2019-06-27T00:13:21.753Z,28.10
2019-06-27T00:15:51.258Z,28.20
2019-06-27T00:18:20.726Z,28.10
2019-06-27T00:20:50.215Z,28.00
2019-06-27T00:23:19.660Z,27.80
2019-06-27T00:25:49.152Z,27.90
2019-06-27T00:28:18.596Z,27.90
2019-06-27T00:30:48.060Z,27.70
2019-06-27T00:33:17.497Z,27.70
2019-06-27T00:35:46.990Z,27.70
2019-06-27T00:38:16.455Z,27.80
2019-06-27T00:40:46.002Z,27.70
2019-06-27T00:43:15.517Z,27.40
2019-06-27T00:45:45.079Z,27.50
2019-06-27T00:48:14.653Z,27.40
2019-06-27T00:50:45.298Z,27.40
2019-06-27T00:53:14.745Z,27.30
2019-06-27T00:55:44.200Z,27.30
2019-06-27T00:58:13.730Z,27.20
2019-06-27T01:00:43.257Z,27.00
2019-06-27T01:03:12.796Z,27.10
2019-06-27T01:05:42.257Z,27.00
2019-06-27T01:08:11.725Z,27.10
2019-06-27T01:10:45.539Z,27.20
2019-06-27T01:13:15.038Z,27.20
2019-06-27T01:15:44.500Z,27.10
2019-06-27T01:18:13.954Z,27.10
2019-06-27T01:20:43.417Z,27.20
2019-06-27T01:23:12.991Z,27.30
2019-06-27T01:25:42.716Z,27.30
2019-06-27T01:28:12.174Z,27.40
2019-06-27T01:30:41.631Z,27.50
2019-06-27T01:33:11.197Z,27.70
2019-06-27T01:35:40.694Z,27.60
2019-06-27T01:38:10.132Z,27.70
2019-06-27T01:40:39.622Z,27.40
2019-06-27T01:43:09.158Z,27.60
2019-06-27T01:45:43.259Z,27.20
2019-06-27T01:48:12.690Z,27.20
2019-06-27T01:50:42.392Z,27.40
2019-06-27T01:53:11.954Z,27.20
2019-06-27T01:55:41.414Z,26.90
2019-06-27T01:58:10.948Z,26.80
2019-06-27T02:00:40.379Z,26.60
2019-06-27T02:03:09.944Z,26.50
2019-06-27T02:05:39.682Z,26.40
2019-06-27T02:08:09.257Z,26.20
2019-06-27T02:10:38.834Z,26.10
2019-06-27T02:13:08.366Z,26.00
2019-06-27T02:15:37.975Z,25.80
2019-06-27T02:18:07.674Z,25.80
2019-06-27T02:20:37.250Z,25.70
2019-06-27T02:23:06.752Z,25.50
2019-06-27T02:25:36.358Z,25.70
2019-06-27T02:28:06.135Z,25.50
2019-06-27T02:30:46.046Z,25.40
2019-06-27T02:33:15.700Z,25.30
2019-06-27T02:35:45.231Z,25.60
2019-06-27T02:38:14.781Z,25.60
2019-06-27T02:40:44.419Z,25.40
2019-06-27T02:43:13.977Z,25.50
2019-06-27T02:45:43.586Z,25.30
2019-06-27T02:48:13.117Z,25.30
2019-06-27T02:50:42.579Z,25.40
2019-06-27T02:53:12.085Z,25.30
2019-06-27T02:55:41.769Z,25.00
2019-06-27T02:58:29.028Z,25.10
2019-06-27T03:00:42.540Z,25.00
2019-06-27T03:03:12.011Z,24.90
2019-06-27T03:05:41.508Z,24.90
2019-06-27T03:08:11.017Z,24.90
2019-06-27T03:10:40.712Z,24.60
2019-06-27T03:13:10.207Z,24.80
2019-06-27T03:15:39.716Z,24.80
2019-06-27T03:18:09.258Z,25.00
2019-06-27T03:20:38.718Z,24.60
2019-06-27T03:23:08.383Z,24.60
2019-06-27T03:25:37.829Z,24.30
2019-06-27T03:28:07.341Z,24.60
2019-06-27T03:30:36.902Z,24.60
2019-06-27T03:33:06.679Z,24.60
2019-06-27T03:35:36.116Z,24.70
2019-06-27T03:38:06.034Z,24.80
2019-06-27T03:40:35.639Z,24.40
2019-06-27T03:43:05.344Z,24.40
2019-06-27T03:45:34.869Z,24.20
2019-06-27T03:48:04.508Z,24.20
2019-06-27T03:50:34.021Z,24.20
2019-06-27T03:53:03.564Z,24.20
2019-06-27T03:55:33.075Z,24.40
2019-06-27T03:58:02.598Z,24.30
2019-06-27T04:00:35.504Z,24.30
2019-06-27T04:03:05.200Z,24.40
2019-06-27T04:05:34.786Z,24.10
2019-06-27T04:08:04.238Z,23.90
2019-06-27T04:10:33.938Z,23.90
2019-06-27T04:13:03.506Z,24.00
2019-06-27T04:15:33.004Z,23.90
2019-06-27T04:18:02.467Z,23.90
2019-06-27T04:20:31.993Z,23.80
2019-06-27T04:23:01.455Z,23.80
2019-06-27T04:25:30.989Z,24.00
2019-06-27T04:28:00.854Z,23.90
2019-06-27T04:30:30.394Z,24.10
2019-06-27T04:32:59.899Z,24.20
2019-06-27T04:35:29.523Z,23.90
2019-06-27T04:37:58.956Z,24.10
2019-06-27T04:40:28.437Z,23.90
2019-06-27T04:42:57.939Z,24.30
2019-06-27T04:45:27.409Z,24.10
2019-06-27T04:47:56.869Z,23.70
2019-06-27T04:50:26.344Z,24.00
2019-06-27T04:52:55.809Z,23.80
2019-06-27T04:55:25.233Z,23.90
2019-06-27T04:57:54.697Z,23.90
2019-06-27T05:00:30.348Z,24.10
2019-06-27T05:02:59.980Z,23.80
2019-06-27T05:05:29.395Z,24.00
2019-06-27T05:07:58.832Z,23.70
2019-06-27T05:10:28.300Z,23.70
2019-06-27T05:12:57.752Z,24.00
2019-06-27T05:15:27.260Z,24.10
2019-06-27T05:17:56.690Z,24.40
2019-06-27T05:20:26.181Z,23.70
2019-06-27T05:22:55.622Z,23.50
2019-06-27T05:25:25.089Z,23.40
2019-06-27T05:27:54.542Z,23.80
2019-06-27T05:30:24.014Z,23.60
2019-06-27T05:32:53.447Z,23.50
2019-06-27T05:35:22.937Z,23.80
2019-06-27T05:37:52.396Z,23.80
2019-06-27T05:40:41.215Z,23.80
2019-06-27T05:43:10.643Z,23.70
2019-06-27T05:45:40.141Z,23.70
2019-06-27T05:48:09.605Z,23.90
2019-06-27T05:50:39.047Z,24.00
2019-06-27T05:53:27.817Z,23.60
2019-06-27T05:55:57.305Z,23.20
2019-06-27T05:58:26.858Z,23.60
2019-06-27T06:00:56.317Z,23.30
2019-06-27T06:03:25.797Z,23.30
2019-06-27T06:05:55.282Z,23.10
2019-06-27T06:08:24.702Z,23.40
2019-06-27T06:10:54.190Z,23.40
2019-06-27T06:13:23.807Z,23.00
2019-06-27T06:15:53.288Z,23.20
2019-06-27T06:18:22.743Z,22.90
2019-06-27T06:20:52.216Z,23.30
2019-06-27T06:23:21.666Z,23.80
2019-06-27T06:25:51.146Z,23.50
2019-06-27T06:28:20.568Z,23.30
2019-06-27T06:30:50.113Z,23.30
2019-06-27T06:33:19.557Z,23.30
2019-06-27T06:35:49.144Z,22.70
2019-06-27T06:38:18.679Z,22.80
2019-06-27T06:40:48.233Z,23.30
2019-06-27T06:43:17.967Z,22.90
2019-06-27T06:45:47.547Z,23.20
2019-06-27T06:48:16.974Z,23.10
2019-06-27T06:50:46.429Z,22.90
2019-06-27T06:53:16.120Z,22.80
2019-06-27T06:55:45.553Z,23.00
2019-06-27T06:58:14.977Z,23.30
2019-06-27T07:01:00.207Z,23.20
2019-06-27T07:03:15.723Z,23.10
2019-06-27T07:05:45.159Z,23.00
2019-06-27T07:08:14.738Z,23.10
2019-06-27T07:10:44.185Z,23.00
2019-06-27T07:13:13.641Z,22.90
2019-06-27T07:15:43.117Z,23.30
2019-06-27T07:18:12.572Z,23.20
2019-06-27T07:20:42.691Z,23.20
2019-06-27T07:23:12.166Z,23.60
2019-06-27T07:25:42.011Z,23.20
2019-06-27T07:28:11.538Z,23.00
2019-06-27T07:30:40.984Z,22.90
2019-06-27T07:33:10.505Z,23.10
2019-06-27T07:35:39.898Z,23.20
2019-06-27T07:38:09.376Z,23.30
2019-06-27T07:40:38.864Z,23.50
2019-06-27T07:43:08.296Z,23.40
2019-06-27T07:45:37.766Z,23.40
2019-06-27T07:48:07.221Z,23.50
2019-06-27T07:50:36.791Z,23.80
2019-06-27T07:53:06.281Z,23.60
2019-06-27T07:55:35.858Z,23.10
2019-06-27T07:58:05.305Z,23.10
2019-06-27T08:00:34.767Z,23.20
2019-06-27T08:03:04.369Z,23.50
2019-06-27T08:05:33.824Z,23.60
2019-06-27T08:08:03.317Z,23.30
2019-06-27T08:10:32.838Z,23.20
2019-06-27T08:13:02.269Z,23.30
2019-06-27T08:15:31.900Z,23.80
2019-06-27T08:18:01.355Z,23.40
2019-06-27T08:20:30.867Z,23.50
2019-06-27T08:23:00.321Z,23.40
2019-06-27T08:25:29.772Z,23.20
2019-06-27T08:27:59.231Z,23.70
2019-06-27T08:30:28.729Z,23.80
2019-06-27T08:32:58.148Z,23.20
2019-06-27T08:35:27.658Z,23.20
2019-06-27T08:37:57.150Z,23.30
2019-06-27T08:40:26.606Z,23.80
2019-06-27T08:42:56.155Z,23.70
2019-06-27T08:45:25.728Z,23.40
2019-06-27T08:47:55.189Z,23.60
2019-06-27T08:50:24.944Z,24.00
2019-06-27T08:52:54.418Z,24.00
2019-06-27T08:55:23.853Z,24.10
2019-06-27T08:57:53.656Z,24.20
2019-06-27T09:00:23.134Z,23.90
2019-06-27T09:02:52.607Z,24.40
2019-06-27T09:05:22.030Z,24.40
2019-06-27T09:07:51.494Z,24.40
2019-06-27T09:10:21.445Z,24.20
2019-06-27T09:12:50.907Z,24.00
2019-06-27T09:15:21.444Z,24.40
2019-06-27T09:17:50.898Z,24.60
2019-06-27T09:20:21.034Z,24.40
2019-06-27T09:22:50.519Z,24.70
2019-06-27T09:25:20.019Z,24.70
2019-06-27T09:27:49.543Z,24.70
2019-06-27T09:30:19.502Z,24.80
2019-06-27T09:32:49.027Z,24.90
2019-06-27T09:35:18.850Z,25.10
2019-06-27T09:37:48.350Z,25.20
2019-06-27T09:40:18.498Z,25.00
2019-06-27T09:42:48.230Z,24.80
2019-06-27T09:45:18.587Z,24.80
2019-06-27T09:47:48.141Z,25.30
2019-06-27T09:50:21.438Z,25.30
2019-06-27T09:52:49.519Z,25.00
2019-06-27T09:55:19.913Z,25.40
2019-06-27T09:57:49.407Z,25.70
2019-06-27T10:00:20.076Z,25.10
2019-06-27T10:02:49.565Z,25.30
2019-06-27T10:05:19.158Z,25.30
2019-06-27T10:07:48.640Z,25.40
2019-06-27T10:10:18.383Z,25.50
2019-06-27T10:12:47.868Z,25.50
2019-06-27T10:15:17.806Z,25.50
2019-06-27T10:17:47.260Z,25.30
2019-06-27T10:20:17.591Z,25.30
2019-06-27T10:22:47.215Z,25.50
2019-06-27T10:25:17.094Z,25.60
2019-06-27T10:27:46.554Z,25.90
2019-06-27T10:30:17.196Z,25.70
2019-06-27T10:32:58.574Z,25.70
2019-06-27T10:35:18.005Z,26.00
2019-06-27T10:37:47.498Z,26.20
2019-06-27T10:40:17.186Z,25.90
2019-06-27T10:42:46.662Z,26.00
2019-06-27T10:45:16.622Z,26.40
2019-06-27T10:47:46.084Z,26.10
2019-06-27T10:50:15.984Z,26.30
2019-06-27T10:52:45.516Z,26.20
2019-06-27T10:55:15.032Z,26.60
2019-06-27T10:57:44.507Z,26.40
2019-06-27T11:00:16.019Z,26.10
2019-06-27T11:02:45.588Z,26.70
2019-06-27T11:05:15.397Z,26.90
2019-06-27T11:07:45.047Z,26.40
2019-06-27T11:10:14.798Z,26.70
2019-06-27T11:12:45.217Z,26.20
2019-06-27T11:15:15.865Z,25.70
2019-06-27T11:17:45.423Z,26.60
2019-06-27T11:20:16.326Z,26.70
2019-06-27T11:22:45.841Z,26.40
2019-06-27T11:25:15.766Z,26.80
2019-06-27T11:27:48.143Z,27.00
2019-06-27T11:30:22.078Z,26.60
2019-06-27T11:32:54.980Z,26.80
2019-06-27T11:35:24.504Z,26.50
2019-06-27T11:37:54.261Z,27.10
2019-06-27T11:40:25.159Z,27.00
2019-06-27T11:42:54.606Z,27.10
2019-06-27T11:45:24.163Z,27.40
2019-06-27T11:47:53.855Z,27.60
2019-06-27T11:50:23.291Z,27.60
2019-06-27T11:52:52.850Z,27.40
2019-06-27T11:55:22.456Z,27.30
2019-06-27T11:57:51.914Z,27.60
2019-06-27T12:00:21.879Z,27.50
2019-06-27T12:02:51.395Z,27.50
2019-06-27T12:05:20.851Z,27.50
2019-06-27T12:07:50.373Z,27.40
2019-06-27T12:10:20.480Z,27.20
2019-06-27T12:12:49.929Z,27.40
2019-06-27T12:15:19.572Z,27.50
2019-06-27T12:17:49.171Z,28.00
2019-06-27T12:20:18.864Z,27.60
2019-06-27T12:23:07.654Z,27.70
2019-06-27T12:25:37.112Z,27.40
2019-06-27T12:28:06.707Z,27.80
2019-06-27T12:30:36.214Z,28.20
2019-06-27T12:33:05.701Z,28.20
2019-06-27T12:35:35.188Z,28.30
2019-06-27T12:38:04.735Z,27.90
2019-06-27T12:40:34.324Z,28.40
2019-06-27T12:43:03.831Z,28.60
2019-06-27T12:45:32.676Z,28.70
2019-06-27T12:48:07.367Z,28.80
2019-06-27T12:50:33.297Z,28.70
2019-06-27T12:53:02.773Z,28.80
2019-06-27T12:55:32.208Z,28.30
2019-06-27T12:58:01.732Z,29.00
2019-06-27T13:00:50.690Z,28.80
2019-06-27T13:03:20.134Z,29.00
2019-06-27T13:05:49.567Z,28.90
2019-06-27T13:08:19.115Z,28.90
2019-06-27T13:10:48.570Z,29.20
2019-06-27T13:13:18.012Z,28.60
2019-06-27T13:15:47.463Z,28.80
2019-06-27T13:18:16.928Z,28.80
2019-06-27T13:20:57.468Z,29.20
2019-06-27T13:23:17.548Z,29.20
2019-06-27T13:25:47.015Z,29.50
2019-06-27T13:28:16.450Z,29.70
2019-06-27T13:30:46.006Z,29.30
2019-06-27T13:33:15.576Z,29.50
2019-06-27T13:35:45.029Z,29.60
2019-06-27T13:38:14.497Z,30.10
2019-06-27T13:40:43.952Z,30.40
2019-06-27T13:43:13.378Z,30.00
2019-06-27T13:45:42.852Z,29.80
2019-06-27T13:48:12.363Z,30.10
2019-06-27T13:50:42.165Z,29.50
2019-06-27T13:53:11.622Z,30.10
2019-06-27T13:55:41.118Z,30.00
2019-06-27T13:58:10.569Z,30.00
2019-06-27T14:00:43.842Z,30.00
2019-06-27T14:03:13.327Z,30.30
2019-06-27T14:05:42.956Z,29.90
2019-06-27T14:08:12.425Z,30.10
2019-06-27T14:10:41.879Z,29.20
2019-06-27T14:13:11.402Z,30.10
2019-06-27T14:15:40.871Z,30.40
2019-06-27T14:18:10.875Z,30.90
2019-06-27T14:20:40.318Z,30.80
2019-06-27T14:23:09.778Z,30.50
2019-06-27T14:25:39.277Z,30.40
2019-06-27T14:28:09.149Z,30.40
2019-06-27T14:30:38.625Z,30.60
2019-06-27T14:33:08.118Z,30.80
2019-06-27T14:35:39.022Z,30.60
2019-06-27T14:38:08.492Z,30.70
2019-06-27T14:40:38.020Z,31.30
2019-06-27T14:43:26.840Z,30.80
2019-06-27T14:45:56.338Z,30.50
2019-06-27T14:48:25.799Z,30.50
2019-06-27T14:50:55.267Z,30.60
2019-06-27T14:53:24.692Z,30.30
2019-06-27T14:55:54.183Z,30.60
2019-06-27T14:58:23.723Z,29.60
2019-06-27T15:00:53.151Z,30.20
2019-06-27T15:03:22.687Z,30.20
2019-06-27T15:05:52.292Z,30.20
2019-06-27T15:08:21.701Z,30.20
2019-06-27T15:10:51.168Z,30.40
2019-06-27T15:13:20.647Z,30.40
2019-06-27T15:15:50.101Z,29.90
2019-06-27T15:18:19.614Z,30.20
2019-06-27T15:20:49.077Z,30.20
2019-06-27T15:23:18.544Z,30.30
2019-06-27T15:25:47.996Z,30.00
2019-06-27T15:28:17.454Z,30.40
2019-06-27T15:30:46.901Z,30.40
2019-06-27T15:33:16.357Z,30.10
2019-06-27T15:35:52.212Z,30.10
2019-06-27T15:38:17.118Z,29.80
2019-06-27T15:40:47.641Z,30.40
2019-06-27T15:43:17.112Z,30.40
2019-06-27T15:45:46.547Z,30.60
2019-06-27T15:48:15.999Z,30.40
2019-06-27T15:50:45.454Z,30.40
2019-06-27T15:53:14.901Z,30.20
2019-06-27T15:55:44.376Z,30.80
2019-06-27T15:58:13.886Z,31.50
2019-06-27T16:00:43.352Z,31.40
2019-06-27T16:03:12.811Z,31.00
2019-06-27T16:05:42.309Z,31.30
2019-06-27T16:08:11.762Z,31.30
2019-06-27T16:10:41.338Z,31.00
2019-06-27T16:13:10.797Z,30.70
2019-06-27T16:15:40.248Z,31.50
2019-06-27T16:18:09.975Z,31.20
2019-06-27T16:20:39.575Z,30.50
2019-06-27T16:23:09.039Z,31.40
2019-06-27T16:25:38.488Z,31.50
2019-06-27T16:28:08.086Z,31.50
2019-06-27T16:30:37.588Z,30.70
2019-06-27T16:33:07.023Z,30.80
2019-06-27T16:35:36.519Z,31.10
2019-06-27T16:38:05.954Z,31.00
2019-06-27T16:40:35.380Z,30.90
2019-06-27T16:43:04.916Z,31.90
2019-06-27T16:45:34.541Z,31.50
2019-06-27T16:48:04.185Z,30.60
2019-06-27T16:50:33.749Z,30.60
2019-06-27T16:53:03.205Z,31.00
2019-06-27T16:55:33.151Z,31.40
2019-06-27T16:58:02.644Z,30.60
2019-06-27T17:00:52.961Z,31.20
2019-06-27T17:03:24.076Z,31.10
2019-06-27T17:05:53.544Z,31.30
2019-06-27T17:08:23.044Z,32.00
2019-06-27T17:10:52.565Z,30.00
2019-06-27T17:13:21.999Z,31.30
2019-06-27T17:15:51.445Z,30.60
2019-06-27T17:18:20.941Z,31.50
2019-06-27T17:20:50.390Z,32.00
2019-06-27T17:23:19.816Z,31.50
2019-06-27T17:25:49.302Z,31.60
2019-06-27T17:28:18.781Z,31.50
2019-06-27T17:30:48.232Z,30.60
2019-06-27T17:33:17.716Z,31.20
2019-06-27T17:35:47.140Z,31.80
2019-06-27T17:38:18.165Z,31.80
2019-06-27T17:40:47.618Z,31.30
2019-06-27T17:43:17.168Z,31.00
2019-06-27T17:46:05.951Z,31.70
2019-06-27T17:48:35.376Z,30.90
2019-06-27T17:51:07.891Z,31.70
2019-06-27T17:53:36.225Z,31.30
2019-06-27T17:56:05.855Z,31.40
2019-06-27T17:58:35.317Z,31.30
2019-06-27T18:01:04.765Z,31.10
2019-06-27T18:03:34.243Z,31.10
2019-06-27T18:06:03.725Z,30.50
2019-06-27T18:08:33.121Z,30.80
2019-06-27T18:11:02.571Z,29.10
2019-06-27T18:13:32.103Z,29.50
2019-06-27T18:16:01.683Z,29.90
2019-06-27T18:18:31.265Z,30.30
2019-06-27T18:21:00.870Z,30.80
2019-06-27T18:23:30.320Z,30.30
2019-06-27T18:25:59.811Z,30.00
2019-06-27T18:28:29.244Z,30.10
2019-06-27T18:30:58.767Z,30.10
2019-06-27T18:33:28.225Z,29.80
2019-06-27T18:35:57.857Z,30.00
2019-06-27T18:38:27.332Z,29.90
2019-06-27T18:40:56.787Z,29.90
2019-06-27T18:43:26.282Z,30.00
2019-06-27T18:45:55.787Z,30.20
2019-06-27T18:48:25.268Z,30.00
2019-06-27T18:50:54.757Z,30.00
2019-06-27T18:53:24.242Z,29.90
2019-06-27T18:55:53.695Z,29.80
2019-06-27T18:58:23.192Z,29.40
2019-06-27T19:00:52.686Z,29.20
2019-06-27T19:03:22.144Z,28.90
2019-06-27T19:05:51.602Z,29.20
2019-06-27T19:08:21.207Z,29.20
2019-06-27T19:10:50.660Z,29.20
2019-06-27T19:13:20.110Z,29.10
2019-06-27T19:15:49.676Z,29.10
2019-06-27T19:18:37.223Z,29.10
2019-06-27T19:21:08.389Z,28.90
2019-06-27T19:23:39.466Z,28.70
2019-06-27T19:26:08.994Z,28.60
2019-06-27T19:28:38.836Z,28.30
2019-06-27T19:31:08.394Z,28.30
2019-06-27T19:33:37.870Z,28.40
2019-06-27T19:36:07.402Z,28.30
2019-06-27T19:38:36.850Z,28.30
2019-06-27T19:41:06.777Z,28.10
2019-06-27T19:43:36.395Z,28.20
2019-06-27T19:46:07.801Z,27.70
2019-06-27T19:48:37.385Z,27.90
2019-06-27T19:51:06.847Z,28.00
2019-06-27T19:53:36.281Z,27.90
2019-06-27T19:56:05.841Z,27.80
2019-06-27T19:58:35.349Z,27.70
2019-06-27T20:01:04.808Z,27.50
2019-06-27T20:03:34.277Z,27.40
2019-06-27T20:06:03.753Z,27.30
2019-06-27T20:08:33.201Z,27.00
2019-06-27T20:11:02.698Z,27.00
2019-06-27T20:13:32.155Z,26.80
2019-06-27T20:16:01.746Z,26.80
2019-06-27T20:18:31.206Z,26.80
2019-06-27T20:21:00.659Z,26.80
2019-06-27T20:23:30.251Z,26.20
2019-06-27T20:25:59.702Z,26.40
2019-06-27T20:28:29.268Z,26.40
2019-06-27T20:30:58.897Z,26.00
2019-06-27T20:33:28.364Z,26.10
2019-06-27T20:35:57.785Z,25.50
2019-06-27T20:38:34.963Z,25.50
2019-06-27T20:40:58.446Z,25.20
2019-06-27T20:43:27.902Z,25.30
2019-06-27T20:45:57.382Z,25.20
2019-06-27T20:48:27.074Z,25.00
2019-06-27T20:50:56.686Z,25.10
2019-06-27T20:53:26.170Z,25.30
2019-06-27T20:55:55.657Z,25.00
2019-06-27T20:58:25.115Z,25.00
2019-06-27T21:00:54.717Z,25.00
2019-06-27T21:03:24.141Z,24.70
2019-06-27T21:05:53.669Z,25.00
2019-06-27T21:08:23.166Z,24.60
2019-06-27T21:10:52.629Z,24.80
2019-06-27T21:13:22.081Z,24.90
2019-06-27T21:15:51.636Z,24.20
2019-06-27T21:18:21.166Z,24.10
2019-06-27T21:20:50.665Z,23.80
2019-06-27T21:23:20.113Z,24.10
2019-06-27T21:25:49.596Z,24.60
2019-06-27T21:28:19.049Z,24.60
2019-06-27T21:30:48.575Z,24.30
2019-06-27T21:33:18.043Z,24.30
2019-06-27T21:35:47.472Z,24.10
2019-06-27T21:38:16.943Z,24.20
2019-06-27T21:40:46.426Z,24.00
2019-06-27T21:43:15.912Z,24.50
2019-06-27T21:45:45.368Z,24.30
2019-06-27T21:48:14.921Z,24.30
2019-06-27T21:50:44.352Z,24.60
2019-06-27T21:53:13.970Z,24.60
2019-06-27T21:55:43.431Z,24.70
2019-06-27T21:58:12.887Z,24.70
2019-06-27T22:00:42.414Z,24.70
2019-06-27T22:03:12.046Z,24.70
2019-06-27T22:05:42.915Z,24.70
2019-06-27T22:08:12.555Z,24.60
2019-06-27T22:10:42.011Z,24.60
2019-06-27T22:13:11.497Z,24.60
2019-06-27T22:15:40.952Z,24.60
2019-06-27T22:18:10.438Z,24.60
2019-06-27T22:20:39.946Z,24.50
2019-06-27T22:23:09.432Z,24.40
2019-06-27T22:25:40.908Z,24.50
2019-06-27T22:28:10.215Z,24.50
2019-06-27T22:30:39.707Z,24.50
2019-06-27T22:33:09.254Z,24.40
2019-06-27T22:35:38.700Z,24.40
2019-06-27T22:38:26.025Z,24.40
2019-06-27T22:41:13.462Z,24.40
2019-06-27T22:44:00.707Z,24.30
2019-06-27T22:46:48.274Z,24.30
2019-06-27T22:49:17.224Z,24.30
2019-06-27T22:52:05.052Z,24.30
2019-06-27T22:54:36.109Z,24.20
2019-06-27T22:57:05.582Z,24.20
2019-06-27T22:59:35.086Z,24.20
2019-06-27T23:02:04.636Z,24.20
2019-06-27T23:04:34.093Z,24.10
2019-06-27T23:07:03.557Z,24.10
2019-06-27T23:09:33.027Z,24.10
2019-06-27T23:12:02.530Z,24.00
2019-06-27T23:14:32.032Z,24.00
2019-06-27T23:17:01.590Z,23.90
2019-06-27T23:19:31.114Z,23.90
2019-06-27T23:22:00.562Z,23.90
2019-06-27T23:24:30.025Z,23.90
2019-06-27T23:26:59.523Z,23.90
2019-06-27T23:29:29.019Z,23.80
2019-06-27T23:31:58.565Z,23.80
2019-06-27T23:34:28.029Z,23.80
2019-06-27T23:36:57.555Z,23.80
2019-06-27T23:39:27.312Z,23.80
2019-06-27T23:41:56.766Z,23.70
2019-06-27T23:44:26.252Z,23.70
2019-06-27T23:46:55.717Z,23.70
2019-06-27T23:49:25.163Z,23.70
2019-06-27T23:51:54.621Z,23.60
2019-06-27T23:54:24.106Z,23.60
2019-06-27T23:56:53.546Z,23.60
2019-06-27T23:59:23.088Z,23.60
